Airfield :
LOGIN :

Register | Disclaimer

   EN    FR    IT 

 










Legend :    VFR   Marginal VFR   IFR   Intensive IFR   Very Intensive IFR
Visi :
Ceiling :
>= 8 km
>= 3000ft
5 to 8 km
1000 to 3000 ft
1500m to 5 km
500 to 1000 ft
800 to 1500m
200 to 500 ft
< 800m
< 200 ft
Symbols :   Thunderstorms  Fog  Heavy snow  Heavy precipitations  Wind > 20 kt
SIGMETs :     Misc.  Thunderstorms  Icing  Turbulence  Mountain Waves  Volcanic Ashes







- Airport Elevation : 13 ft
- IATA code : CEQ
- Download approach charts


LFMD - Cannes Mandelieu

CURRENT METAR :
  • 162200Z AUTO 36003KT 9000 NSC 13/13 Q1027

EXPIRED METARs :
  • 162130Z AUTO VRB03KT 9000 NSC 14/13 Q1027 TEMPO BKN013
  • 162100Z AUTO 36003KT 330V040 8000 NSC 14/13 Q1027 TEMPO BKN013
  • 162030Z AUTO 01003KT 8000 NSC 15/14 Q1027 TEMPO BKN013
  • 162000Z AUTO VRB03KT 8000 NSC 15/14 Q1027 TEMPO BKN013
  • 161930Z AUTO VRB03KT 9000 NSC 16/14 Q1027 TEMPO BKN013
  • 161900Z AUTO 02003KT 350V050 9000 NSC 16/15 Q1027 TEMPO BKN013

TAF TAF LFMD
Valid from the 16 at 15:00 until the 17 at 15:00 UTC


161400Z 1615/1715 16008KT CAVOK
BECMG 1618/1619 34010KT
PROB30
TEMPO 1618/1702 BKN013
BECMG 1707/1709 18006KT
ATIS : +33 4 93 48 73 23
No reported NOTAMs for that airfield.



MET'MAP, your aeronautical weather chart ! - Copyright ORBIFLY December 2007 - Disclaimer

ORBIFLY MET'MAP TEAM :

Programming & Development : Alexandra Zaïnal
Concept & Development : Baudouin d'Aumeries
Co-Development & Prog : Marc-Olivier Méhu
Technical & hardware support : Manuel Goepfert

Contact : metmap@orbifly.com




SOURCES & CREDITS :

   NOAA